createdAt,value
2022-10-05T00:00:21.380Z,6.97
2022-10-05T00:03:11.119Z,6.87
2022-10-05T00:05:40.360Z,6.84
2022-10-05T00:08:13.756Z,6.86
2022-10-05T00:10:43.239Z,6.87
2022-10-05T00:13:20.768Z,6.82
2022-10-05T00:15:49.652Z,6.76
2022-10-05T00:18:20.186Z,6.73
2022-10-05T00:20:49.391Z,6.71
2022-10-05T00:23:36.164Z,6.71
2022-10-05T00:26:12.966Z,6.72
2022-10-05T00:28:41.758Z,6.74
2022-10-05T00:31:31.979Z,6.77
2022-10-05T00:34:00.427Z,6.76
2022-10-05T00:36:29.497Z,6.74
2022-10-05T00:39:00.669Z,6.73
2022-10-05T00:41:29.355Z,6.72
2022-10-05T00:44:03.959Z,6.72
2022-10-05T00:46:38.505Z,6.69
2022-10-05T00:49:06.782Z,6.67
2022-10-05T00:51:36.795Z,6.63
2022-10-05T00:54:24.223Z,6.58
2022-10-05T00:56:55.760Z,6.54
2022-10-05T00:59:50.147Z,6.50
2022-10-05T01:02:18.601Z,6.44
2022-10-05T01:04:53.136Z,6.34
2022-10-05T01:07:31.076Z,6.25
2022-10-05T01:09:59.350Z,6.19
2022-10-05T01:12:46.328Z,6.14
2022-10-05T01:15:17.920Z,6.11
2022-10-05T01:17:46.403Z,6.10
2022-10-05T01:20:14.680Z,6.08
2022-10-05T01:22:46.336Z,6.06
2022-10-05T01:25:30.535Z,6.05
2022-10-05T01:27:59.092Z,6.06
2022-10-05T01:30:31.629Z,6.07
2022-10-05T01:33:19.174Z,6.09
2022-10-05T01:35:58.613Z,6.12
2022-10-05T01:38:39.077Z,6.16
2022-10-05T01:41:07.763Z,6.17
2022-10-05T01:43:40.036Z,6.14
2022-10-05T01:46:11.611Z,6.13
2022-10-05T01:48:45.087Z,6.13
2022-10-05T01:51:16.334Z,6.14
2022-10-05T01:53:54.135Z,6.15
2022-10-05T01:56:22.610Z,6.15
2022-10-05T01:58:57.756Z,6.14
2022-10-05T02:01:28.846Z,6.12
2022-10-05T02:04:18.646Z,6.11
2022-10-05T02:07:02.623Z,6.13
2022-10-05T02:09:37.783Z,6.16
2022-10-05T02:12:08.187Z,6.14
2022-10-05T02:14:39.537Z,6.12
2022-10-05T02:17:14.474Z,6.08
2022-10-05T02:19:45.212Z,6.09
2022-10-05T02:22:20.650Z,6.08
2022-10-05T02:24:52.276Z,6.10
2022-10-05T02:27:23.757Z,6.10
2022-10-05T02:29:56.848Z,6.08
2022-10-05T02:32:29.529Z,6.02
2022-10-05T02:35:01.699Z,6.00
2022-10-05T02:37:40.914Z,5.96
2022-10-05T02:40:09.617Z,5.90
2022-10-05T02:42:37.904Z,5.87
2022-10-05T02:45:09.448Z,5.87
2022-10-05T02:47:42.791Z,5.89
2022-10-05T02:50:30.372Z,5.90
2022-10-05T02:53:02.130Z,5.91
2022-10-05T02:55:49.352Z,5.92
2022-10-05T02:58:25.411Z,5.95
2022-10-05T03:01:09.602Z,5.99
2022-10-05T03:03:42.139Z,6.02
2022-10-05T03:06:18.303Z,6.02
2022-10-05T03:09:06.750Z,6.00
2022-10-05T03:12:14.657Z,5.98
2022-10-05T03:14:43.151Z,5.96
2022-10-05T03:17:22.884Z,5.97
2022-10-05T03:20:10.310Z,6.00
2022-10-05T03:22:47.703Z,5.98
2022-10-05T03:25:25.807Z,5.97
2022-10-05T03:28:27.022Z,5.97
2022-10-05T03:30:55.800Z,5.93
2022-10-05T03:33:24.432Z,5.94
2022-10-05T03:36:17.389Z,5.96
2022-10-05T03:39:06.245Z,5.94
2022-10-05T03:41:43.051Z,5.96
2022-10-05T03:44:30.756Z,5.98
2022-10-05T03:47:05.857Z,5.97
2022-10-05T03:49:53.422Z,5.96
2022-10-05T03:52:26.726Z,5.95
2022-10-05T03:55:01.956Z,5.92
2022-10-05T03:57:34.638Z,5.86
2022-10-05T04:00:06.908Z,5.82
2022-10-05T04:03:11.541Z,5.81
2022-10-05T04:05:47.289Z,5.76
2022-10-05T04:08:23.656Z,5.71
2022-10-05T04:10:54.252Z,5.69
2022-10-05T04:13:47.654Z,5.69
2022-10-05T04:16:18.988Z,5.62
2022-10-05T04:18:47.484Z,5.58
2022-10-05T04:21:25.795Z,5.57
2022-10-05T04:24:03.803Z,5.55
2022-10-05T04:26:39.924Z,5.53
2022-10-05T04:29:21.143Z,5.55
2022-10-05T04:32:15.737Z,5.59
2022-10-05T04:34:59.784Z,5.63
2022-10-05T04:37:34.535Z,5.67
2022-10-05T04:40:21.938Z,5.72
2022-10-05T04:43:13.917Z,5.74
2022-10-05T04:45:54.537Z,5.76
2022-10-05T04:48:44.936Z,5.78
2022-10-05T04:51:32.973Z,5.82
2022-10-05T04:54:21.622Z,5.87
2022-10-05T04:56:55.435Z,5.94
2022-10-05T04:59:25.349Z,6.05
2022-10-05T05:02:12.777Z,6.19
2022-10-05T05:04:59.791Z,6.33
2022-10-05T05:07:34.724Z,6.50
2022-10-05T05:10:21.537Z,6.65
2022-10-05T05:12:50.320Z,6.80
2022-10-05T05:15:31.095Z,7.00
2022-10-05T05:18:18.420Z,7.25
2022-10-05T05:21:02.370Z,7.52
2022-10-05T05:23:43.933Z,7.79
2022-10-05T05:26:18.885Z,8.07
2022-10-05T05:28:47.266Z,8.36
2022-10-05T05:31:24.853Z,8.64
2022-10-05T05:33:53.863Z,8.94
2022-10-05T05:36:26.718Z,9.22
2022-10-05T05:39:14.234Z,9.47
2022-10-05T05:41:43.270Z,9.72
2022-10-05T05:44:11.842Z,9.94
2022-10-05T05:47:03.399Z,10.12
2022-10-05T05:49:36.667Z,10.35
2022-10-05T05:52:10.274Z,10.57
2022-10-05T05:54:44.741Z,10.79
2022-10-05T05:57:20.036Z,11.03
2022-10-05T06:00:14.317Z,11.30
2022-10-05T06:02:53.156Z,11.63
2022-10-05T06:05:25.395Z,11.93
2022-10-05T06:07:54.513Z,12.25
2022-10-05T06:10:29.957Z,12.53
2022-10-05T06:13:06.805Z,12.82
2022-10-05T06:15:55.822Z,13.08
2022-10-05T06:18:25.305Z,13.39
2022-10-05T06:21:02.012Z,13.72
2022-10-05T06:23:46.640Z,14.08
2022-10-05T06:26:21.687Z,14.43
2022-10-05T06:28:59.173Z,14.75
2022-10-05T06:31:42.841Z,15.01
2022-10-05T06:34:35.457Z,15.25
2022-10-05T06:37:12.340Z,15.55
2022-10-05T06:40:13.485Z,15.88
2022-10-05T06:42:45.039Z,16.27
2022-10-05T06:45:40.096Z,16.69
2022-10-05T06:48:25.729Z,17.06
2022-10-05T06:51:30.052Z,17.50
2022-10-05T06:54:08.376Z,17.85
2022-10-05T06:56:44.047Z,18.14
2022-10-05T06:59:24.376Z,18.41
2022-10-05T07:01:57.203Z,18.73
2022-10-05T07:04:26.671Z,18.98
2022-10-05T07:06:58.835Z,19.13
2022-10-05T07:09:27.319Z,19.31
2022-10-05T07:12:15.974Z,19.45
2022-10-05T07:14:53.673Z,19.57
2022-10-05T07:17:22.444Z,19.60
2022-10-05T07:19:58.828Z,19.59
2022-10-05T07:22:37.041Z,19.68
2022-10-05T07:25:11.341Z,19.79
2022-10-05T07:27:51.867Z,19.77
2022-10-05T07:30:21.229Z,19.81
2022-10-05T07:33:09.762Z,19.94
2022-10-05T07:36:06.320Z,20.13
2022-10-05T07:38:54.363Z,20.24
2022-10-05T07:41:32.575Z,20.37
2022-10-05T07:44:13.652Z,20.46
2022-10-05T07:46:55.888Z,20.49
2022-10-05T07:49:36.833Z,20.60
2022-10-05T07:52:13.817Z,20.71
2022-10-05T07:54:45.865Z,20.81
2022-10-05T07:57:30.238Z,20.93
2022-10-05T08:00:05.475Z,21.03
2022-10-05T08:02:46.094Z,21.17
2022-10-05T08:05:15.300Z,21.37
2022-10-05T08:07:43.620Z,21.45
2022-10-05T08:10:36.884Z,21.38
2022-10-05T08:13:15.219Z,21.39
2022-10-05T08:15:48.697Z,21.46
2022-10-05T08:18:21.426Z,21.43
2022-10-05T08:20:49.966Z,21.53
2022-10-05T08:23:42.817Z,21.70
2022-10-05T08:26:17.933Z,21.93
2022-10-05T08:28:52.687Z,22.15
2022-10-05T08:31:23.888Z,22.28
2022-10-05T08:34:27.950Z,22.35
2022-10-05T08:37:05.446Z,22.51
2022-10-05T08:39:41.300Z,22.65
2022-10-05T08:42:28.497Z,22.54
2022-10-05T08:45:27.140Z,22.52
2022-10-05T08:48:04.837Z,22.67
2022-10-05T08:50:48.814Z,22.82
2022-10-05T08:53:36.078Z,23.02
2022-10-05T08:56:28.506Z,23.23
2022-10-05T08:59:04.379Z,23.44
2022-10-05T09:01:38.722Z,23.38
2022-10-05T09:04:25.818Z,23.42
2022-10-05T09:07:01.413Z,23.42
2022-10-05T09:09:35.994Z,23.33
2022-10-05T09:12:13.386Z,23.37
2022-10-05T09:15:01.285Z,23.55
2022-10-05T09:17:39.342Z,23.83
2022-10-05T09:20:17.932Z,24.04
2022-10-05T09:22:57.699Z,24.05
2022-10-05T09:25:28.969Z,24.16
2022-10-05T09:28:11.424Z,24.06
2022-10-05T09:30:49.598Z,24.22
2022-10-05T09:33:27.574Z,24.45
2022-10-05T09:36:16.123Z,24.22
2022-10-05T09:39:17.052Z,23.65
2022-10-05T09:41:51.366Z,23.69
2022-10-05T09:44:22.532Z,23.80
2022-10-05T09:47:09.757Z,23.84
2022-10-05T09:49:50.527Z,23.98
2022-10-05T09:52:37.645Z,24.16
2022-10-05T09:55:21.202Z,24.53
2022-10-05T09:58:08.407Z,24.61
2022-10-05T10:00:59.552Z,24.61
2022-10-05T10:03:43.776Z,24.76
2022-10-05T10:06:30.893Z,24.90
2022-10-05T10:09:10.058Z,25.14
2022-10-05T10:11:44.487Z,25.54
2022-10-05T10:14:32.180Z,25.90
2022-10-05T10:17:08.854Z,26.24
2022-10-05T10:19:46.554Z,26.69
2022-10-05T10:22:33.830Z,27.00
2022-10-05T10:25:05.445Z,27.08
2022-10-05T10:28:03.447Z,27.08
2022-10-05T10:30:41.331Z,26.95
2022-10-05T10:33:28.430Z,26.63
2022-10-05T10:36:06.142Z,26.50
2022-10-05T10:38:47.617Z,25.77
2022-10-05T10:41:16.275Z,25.28
2022-10-05T10:43:47.653Z,25.15
2022-10-05T10:46:16.324Z,24.84
2022-10-05T10:49:06.769Z,24.45
2022-10-05T10:51:50.481Z,24.51
2022-10-05T10:54:18.859Z,24.87
2022-10-05T10:57:06.268Z,25.10
2022-10-05T10:59:53.508Z,25.25
2022-10-05T11:02:22.334Z,25.27
2022-10-05T11:04:56.708Z,25.31
2022-10-05T11:07:43.516Z,25.61
2022-10-05T11:10:30.550Z,25.56
2022-10-05T11:13:14.599Z,25.62
2022-10-05T11:15:49.005Z,25.76
2022-10-05T11:18:40.851Z,25.95
2022-10-05T11:21:21.109Z,26.30
2022-10-05T11:23:55.635Z,26.39
2022-10-05T11:26:27.292Z,26.37
2022-10-05T11:29:08.128Z,26.25
2022-10-05T11:31:59.151Z,26.39
2022-10-05T11:34:27.863Z,26.37
2022-10-05T11:36:56.447Z,26.33
2022-10-05T11:39:44.081Z,26.10
2022-10-05T11:42:31.302Z,25.72
2022-10-05T11:45:19.854Z,25.39
2022-10-05T11:47:57.358Z,25.00
2022-10-05T11:50:53.182Z,24.55
2022-10-05T11:53:28.619Z,24.14
2022-10-05T11:56:04.786Z,23.99
2022-10-05T11:58:35.927Z,23.92
2022-10-05T12:01:17.516Z,23.95
2022-10-05T12:03:48.802Z,24.14
2022-10-05T12:06:32.606Z,24.57
2022-10-05T12:09:01.093Z,24.70
2022-10-05T12:11:40.222Z,24.69
2022-10-05T12:14:20.582Z,25.11
2022-10-05T12:16:48.963Z,25.69
2022-10-05T12:19:17.553Z,26.62
2022-10-05T12:21:49.130Z,27.43
2022-10-05T12:24:24.575Z,28.00
2022-10-05T12:26:55.489Z,28.54
2022-10-05T12:29:23.839Z,29.24
2022-10-05T12:32:04.538Z,29.80
2022-10-05T12:34:45.416Z,30.39
2022-10-05T12:37:32.744Z,31.19
2022-10-05T12:40:19.930Z,31.52
2022-10-05T12:42:55.096Z,31.21
2022-10-05T12:45:23.734Z,31.65
2022-10-05T12:48:02.506Z,31.38
2022-10-05T12:50:34.140Z,30.93
2022-10-05T12:53:11.759Z,31.15
2022-10-05T12:55:58.879Z,31.22
2022-10-05T12:58:52.244Z,31.07
2022-10-05T13:01:20.728Z,30.68
2022-10-05T13:03:53.512Z,30.71
2022-10-05T13:06:41.552Z,31.27
2022-10-05T13:09:16.184Z,32.34
2022-10-05T13:11:48.351Z,32.98
2022-10-05T13:14:44.687Z,33.41
2022-10-05T13:17:30.066Z,33.49
2022-10-05T13:20:02.746Z,33.73
2022-10-05T13:22:35.221Z,34.32
2022-10-05T13:25:03.983Z,34.95
2022-10-05T13:27:35.974Z,35.39
2022-10-05T13:30:04.339Z,35.61
2022-10-05T13:32:36.013Z,35.25
2022-10-05T13:35:09.206Z,35.40
2022-10-05T13:37:40.044Z,35.22
2022-10-05T13:40:18.952Z,35.08
2022-10-05T13:42:50.425Z,35.25
2022-10-05T13:45:26.733Z,35.27
2022-10-05T13:48:01.318Z,34.69
2022-10-05T13:50:35.439Z,34.09
2022-10-05T13:53:06.473Z,33.98
2022-10-05T13:55:41.188Z,33.85
2022-10-05T13:58:09.583Z,33.79
2022-10-05T14:00:46.028Z,33.26
2022-10-05T14:03:24.681Z,32.39
2022-10-05T14:05:55.897Z,32.02
2022-10-05T14:08:35.463Z,31.96
2022-10-05T14:11:28.932Z,31.93
2022-10-05T14:14:12.776Z,32.12
2022-10-05T14:16:52.880Z,32.42
2022-10-05T14:19:24.179Z,32.72
2022-10-05T14:22:00.943Z,32.52
2022-10-05T14:24:45.349Z,32.40
2022-10-05T14:27:21.595Z,32.10
2022-10-05T14:30:01.837Z,32.03
2022-10-05T14:32:32.139Z,32.11
2022-10-05T14:35:05.362Z,32.08
2022-10-05T14:37:43.771Z,32.04
2022-10-05T14:40:27.140Z,32.08
2022-10-05T14:42:55.840Z,31.83
2022-10-05T14:45:30.331Z,31.38
2022-10-05T14:48:02.178Z,30.86
2022-10-05T14:50:31.655Z,30.52
2022-10-05T14:53:04.157Z,30.32
2022-10-05T14:55:35.505Z,30.07
2022-10-05T14:58:09.827Z,29.75
2022-10-05T15:00:48.873Z,29.35
2022-10-05T15:03:27.497Z,29.04
2022-10-05T15:05:59.205Z,28.42
2022-10-05T15:08:46.357Z,27.58
2022-10-05T15:11:24.977Z,26.89
2022-10-05T15:13:53.937Z,26.27
2022-10-05T15:16:28.879Z,26.04
2022-10-05T15:19:07.728Z,25.92
2022-10-05T15:21:54.950Z,25.79
2022-10-05T15:24:29.195Z,25.61
2022-10-05T15:26:59.595Z,25.42
2022-10-05T15:29:31.252Z,25.19
2022-10-05T15:32:18.580Z,24.85
2022-10-05T15:35:06.414Z,24.22
2022-10-05T15:37:42.668Z,23.44
2022-10-05T15:40:20.377Z,22.68
2022-10-05T15:42:53.466Z,21.97
2022-10-05T15:45:32.970Z,21.34
2022-10-05T15:48:04.358Z,20.69
2022-10-05T15:50:38.061Z,20.11
2022-10-05T15:53:16.991Z,19.60
2022-10-05T15:55:51.821Z,19.12
2022-10-05T15:58:31.541Z,18.68
2022-10-05T16:01:19.055Z,18.27
2022-10-05T16:04:00.024Z,17.85
2022-10-05T16:06:50.366Z,17.51
2022-10-05T16:09:41.377Z,17.15
2022-10-05T16:12:32.365Z,16.83
2022-10-05T16:15:33.439Z,16.54
2022-10-05T16:18:22.164Z,16.24
2022-10-05T16:21:01.224Z,15.94
2022-10-05T16:23:49.880Z,15.66
2022-10-05T16:26:21.612Z,15.40
2022-10-05T16:28:51.012Z,15.22
2022-10-05T16:31:22.357Z,15.06
2022-10-05T16:34:09.713Z,14.89
2022-10-05T16:36:44.954Z,14.69
2022-10-05T16:39:21.219Z,14.52
2022-10-05T16:42:05.881Z,14.35
2022-10-05T16:44:34.159Z,14.19
2022-10-05T16:47:25.145Z,14.05
2022-10-05T16:50:14.542Z,13.88
2022-10-05T16:52:46.096Z,13.70
2022-10-05T16:55:27.106Z,13.57
2022-10-05T16:57:57.215Z,13.44
2022-10-05T17:00:28.444Z,13.35
2022-10-05T17:03:15.763Z,13.28
2022-10-05T17:06:13.279Z,13.19
2022-10-05T17:09:24.614Z,13.08
2022-10-05T17:12:36.001Z,12.97
2022-10-05T17:15:30.391Z,12.89
2022-10-05T17:18:28.471Z,12.81
2022-10-05T17:21:08.215Z,12.72
2022-10-05T17:23:39.817Z,12.65
2022-10-05T17:26:23.612Z,12.57
2022-10-05T17:29:09.633Z,12.50
2022-10-05T17:31:56.622Z,12.45
2022-10-05T17:34:26.767Z,12.40
2022-10-05T17:37:00.145Z,12.36
2022-10-05T17:39:44.189Z,12.34
2022-10-05T17:42:30.599Z,12.30
2022-10-05T17:45:14.840Z,12.27
2022-10-05T17:47:58.686Z,12.20
2022-10-05T17:51:02.806Z,12.11
2022-10-05T17:53:53.511Z,12.02
2022-10-05T17:56:23.238Z,11.94
2022-10-05T17:58:54.871Z,11.90
2022-10-05T18:01:31.196Z,11.84
2022-10-05T18:04:11.496Z,11.80
2022-10-05T18:06:45.000Z,11.75
2022-10-05T18:09:13.376Z,11.69
2022-10-05T18:11:43.204Z,11.64
2022-10-05T18:14:24.924Z,11.60
2022-10-05T18:17:00.021Z,11.55
2022-10-05T18:19:31.855Z,11.50
2022-10-05T18:22:03.700Z,11.44
2022-10-05T18:24:44.090Z,11.38
2022-10-05T18:27:18.565Z,11.33
2022-10-05T18:30:09.216Z,11.29
2022-10-05T18:32:56.453Z,11.26
2022-10-05T18:35:38.346Z,11.23
2022-10-05T18:38:15.947Z,11.22
2022-10-05T18:40:47.093Z,11.19
2022-10-05T18:43:22.687Z,11.18
2022-10-05T18:46:22.191Z,11.17
2022-10-05T18:49:06.400Z,11.17
2022-10-05T18:51:51.912Z,11.16
2022-10-05T18:54:39.515Z,11.14
2022-10-05T18:57:34.822Z,11.11
2022-10-05T19:00:25.321Z,11.11
2022-10-05T19:03:21.860Z,11.12
2022-10-05T19:06:13.238Z,11.15
2022-10-05T19:09:07.790Z,11.16
2022-10-05T19:11:45.245Z,11.15
2022-10-05T19:14:36.481Z,11.16
2022-10-05T19:17:24.521Z,11.16
2022-10-05T19:19:56.079Z,11.15
2022-10-05T19:22:50.362Z,11.14
2022-10-05T19:25:42.796Z,11.15
2022-10-05T19:28:29.157Z,11.14
2022-10-05T19:31:13.818Z,11.10
2022-10-05T19:33:42.352Z,11.04
2022-10-05T19:36:22.304Z,11.00
2022-10-05T19:39:39.329Z,10.98
2022-10-05T19:42:27.574Z,10.93
2022-10-05T19:45:15.899Z,10.87
2022-10-05T19:48:39.363Z,10.83
2022-10-05T19:51:50.346Z,10.76
2022-10-05T19:58:36.699Z,10.72
2022-10-05T20:01:45.414Z,10.69
2022-10-05T20:04:53.721Z,10.70
2022-10-05T20:08:01.923Z,10.73
2022-10-05T20:11:10.170Z,10.79
2022-10-05T20:14:20.891Z,10.80
2022-10-05T20:17:27.825Z,10.74
2022-10-05T20:20:45.754Z,10.67
2022-10-05T20:24:00.497Z,10.63
2022-10-05T20:27:10.476Z,10.60
2022-10-05T20:29:41.933Z,10.57
2022-10-05T20:32:12.427Z,10.53
2022-10-05T20:34:45.255Z,10.48
2022-10-05T20:37:17.524Z,10.42
2022-10-05T20:39:46.052Z,10.36
2022-10-05T20:42:15.000Z,10.29
2022-10-05T20:44:43.278Z,10.23
2022-10-05T20:47:12.011Z,10.19
2022-10-05T20:49:44.849Z,10.14
2022-10-05T20:52:15.311Z,10.09
2022-10-05T20:57:14.112Z,10.01
2022-10-05T20:59:42.515Z,9.99
2022-10-05T21:02:10.945Z,9.99
2022-10-05T21:04:41.410Z,9.99
2022-10-05T21:07:10.575Z,9.99
2022-10-05T21:09:41.102Z,9.98
2022-10-05T21:12:09.894Z,9.97
2022-10-05T21:14:38.684Z,9.93
2022-10-05T21:17:07.470Z,9.87
2022-10-05T21:19:39.953Z,9.80
2022-10-05T21:22:09.827Z,9.72
2022-10-05T21:24:39.060Z,9.65
2022-10-05T21:27:08.655Z,9.59
2022-10-05T21:29:37.459Z,9.51
2022-10-05T21:32:08.870Z,9.42
2022-10-05T21:34:40.361Z,9.36
2022-10-05T21:37:08.849Z,9.29
2022-10-05T21:39:37.121Z,9.23
2022-10-05T21:42:05.915Z,9.17
2022-10-05T21:44:34.454Z,9.13
2022-10-05T21:47:02.692Z,9.11
2022-10-05T21:49:31.663Z,9.08
2022-10-05T21:52:01.295Z,9.05
2022-10-05T21:54:29.957Z,9.00
2022-10-05T21:56:59.257Z,8.95
2022-10-05T21:59:29.845Z,8.89
2022-10-05T22:01:58.681Z,8.86
2022-10-05T22:04:27.471Z,8.84
2022-10-05T22:06:55.848Z,8.83
2022-10-05T22:09:24.436Z,8.85
2022-10-05T22:11:52.916Z,8.88
2022-10-05T22:14:21.707Z,8.93
2022-10-05T22:16:50.159Z,8.96
2022-10-05T22:19:19.693Z,9.00
2022-10-05T22:21:48.191Z,9.04
2022-10-05T22:24:16.580Z,9.08
2022-10-05T22:26:46.774Z,9.12
2022-10-05T22:29:16.083Z,9.16
2022-10-05T22:31:49.151Z,9.20
2022-10-05T22:34:18.470Z,9.23
2022-10-05T22:36:47.690Z,9.26
2022-10-05T22:39:16.974Z,9.26
2022-10-05T22:41:45.689Z,9.26
2022-10-05T22:44:14.650Z,9.26
2022-10-05T22:46:43.336Z,9.28
2022-10-05T22:49:12.128Z,9.29
2022-10-05T22:51:40.404Z,9.33
2022-10-05T22:54:08.884Z,9.36
2022-10-05T22:56:37.366Z,9.38
2022-10-05T22:59:05.747Z,9.41
2022-10-05T23:01:34.287Z,9.43
2022-10-05T23:04:03.018Z,9.43
2022-10-05T23:06:31.506Z,9.44
2022-10-05T23:08:59.864Z,9.48
2022-10-05T23:11:28.360Z,9.51
2022-10-05T23:13:57.171Z,9.54
2022-10-05T23:16:27.105Z,9.54
2022-10-05T23:18:56.166Z,9.52
2022-10-05T23:21:25.464Z,9.51
2022-10-05T23:23:54.149Z,9.50
2022-10-05T23:26:23.665Z,9.47
2022-10-05T23:28:52.344Z,9.42
2022-10-05T23:31:25.536Z,9.37
2022-10-05T23:33:54.531Z,9.28
2022-10-05T23:36:24.033Z,9.13
2022-10-05T23:38:53.126Z,8.96
2022-10-05T23:41:21.615Z,8.80
2022-10-05T23:43:50.103Z,8.63
2022-10-05T23:46:18.543Z,8.48
2022-10-05T23:48:47.264Z,8.39
2022-10-05T23:51:15.966Z,8.35
2022-10-05T23:53:44.640Z,8.37
2022-10-05T23:56:13.634Z,8.43
2022-10-05T23:58:41.915Z,8.53
